F\v Gure Gogoa — EAJC — position and weather

sailwx.info

Track history (hours):
 
Tides and Currents Weather Stations Pressure Air Temp Water Temp Dewpoint Dewpoint Depression Visibility Wind Speed Wind Dir Waves Ship Positions

F\v Gure Gogoa

Last reported at 2014-Jul-22 19:13 UTC. Time now 2014-Jul-29 10:43 UTC.
Position N 43°44' W 005°47'.

Length 37 m.

Type: Fishing. MMSI: 224128930.

Date/timePositionNaut miles runAvg speedWind from/ knotsBaromVisibWave heightAir tempDewpointWater temp
2014-Jul-22 19:13N 43°44' W 005°47'1 1.3
2014-Jul-22 18:17N 43°44' W 005°46'2 1.4
2014-Jul-22 17:07N 43°43' W 005°44'1 1.4
2014-Jul-22 16:21N 43°43' W 005°42'1 1.4
2014-Jul-22 15:33N 43°43' W 005°41'1 1.3
2014-Jul-22 14:33N 43°43' W 005°39'1 1.1
2014-Jul-22 13:26N 43°43' W 005°37'4 4.0
2014-Jul-22 12:30N 43°41' W 005°32'6 6.0
2014-Jul-22 11:33N 43°40' W 005°25'  
2014-Jul-18 18:33N 43°25' W 002°34'1010.0
2014-Jul-18 17:33N 43°28' W 002°47'10 9.6
2014-Jul-18 16:33N 43°30' W 002°60'10 9.8
2014-Jul-18 15:33N 43°31' W 003°13'9 9.5
2014-Jul-18 14:33N 43°32' W 003°26'83 9.8
2014-Jul-18 06:09N 43°43' W 005°19'18 6.8
2014-Jul-18 03:28N 43°46' W 005°44'2 1.5
2014-Jul-18 02:18N 43°44' W 005°46'0 0.1
2014-Jul-18 01:33N 43°45' W 005°46'0 0.0
2014-Jul-18 00:22N 43°45' W 005°46'0 0.1
2014-Jul-17 22:26N 43°45' W 005°46'13 1.1
2014-Jul-17 10:21N 43°41' W 005°29'76 7.6
2014-Jul-17 00:15N 43°36' W 003°44'7 9.3
2014-Jul-16 23:32N 43°38' W 003°35'4 4.3
2014-Jul-16 22:31N 43°40' W 003°40'6 3.0
2014-Jul-16 20:26N 43°37' W 003°32'8 9.8
2014-Jul-16 19:33N 43°34' W 003°21'10 9.8
2014-Jul-16 18:33N 43°32' W 003°08'1010.3
2014-Jul-16 17:33N 43°29' W 002°54'1110.4
2014-Jul-16 16:32N 43°26' W 002°40'2 0.1
2014-Jul-15 04:33N 43°26' W 002°37'9 0.8
2014-Jul-14 17:19N 43°28' W 002°25'  
Track history (hours):
 
Tides and Currents Weather Stations Pressure Air Temp Water Temp Dewpoint Dewpoint Depression Visibility Wind Speed Wind Dir Waves Ship Positions

F\v Gure Gogoa

Last reported at 2014-Jul-22 19:13 UTC. Time now 2014-Jul-29 10:43 UTC.
Position N 43°44' W 005°47'.

Length 37 m.

Type: Fishing. MMSI: 224128930.

Date/timePositionNaut miles runAvg speedWind from/ knotsBaromVisibWave heightAir tempDewpointWater temp
2014-Jul-22 19:13N 43°44' W 005°47'1 1.3
2014-Jul-22 18:17N 43°44' W 005°46'2 1.4
2014-Jul-22 17:07N 43°43' W 005°44'1 1.4
2014-Jul-22 16:21N 43°43' W 005°42'1 1.4
2014-Jul-22 15:33N 43°43' W 005°41'1 1.3
2014-Jul-22 14:33N 43°43' W 005°39'1 1.1
2014-Jul-22 13:26N 43°43' W 005°37'4 4.0
2014-Jul-22 12:30N 43°41' W 005°32'6 6.0
2014-Jul-22 11:33N 43°40' W 005°25'  
2014-Jul-18 18:33N 43°25' W 002°34'1010.0
2014-Jul-18 17:33N 43°28' W 002°47'10 9.6
2014-Jul-18 16:33N 43°30' W 002°60'10 9.8
2014-Jul-18 15:33N 43°31' W 003°13'9 9.5
2014-Jul-18 14:33N 43°32' W 003°26'83 9.8
2014-Jul-18 06:09N 43°43' W 005°19'18 6.8
2014-Jul-18 03:28N 43°46' W 005°44'2 1.5
2014-Jul-18 02:18N 43°44' W 005°46'0 0.1
2014-Jul-18 01:33N 43°45' W 005°46'0 0.0
2014-Jul-18 00:22N 43°45' W 005°46'0 0.1
2014-Jul-17 22:26N 43°45' W 005°46'13 1.1
2014-Jul-17 10:21N 43°41' W 005°29'76 7.6
2014-Jul-17 00:15N 43°36' W 003°44'7 9.3
2014-Jul-16 23:32N 43°38' W 003°35'4 4.3
2014-Jul-16 22:31N 43°40' W 003°40'6 3.0
2014-Jul-16 20:26N 43°37' W 003°32'8 9.8
2014-Jul-16 19:33N 43°34' W 003°21'10 9.8
2014-Jul-16 18:33N 43°32' W 003°08'1010.3
2014-Jul-16 17:33N 43°29' W 002°54'1110.4
2014-Jul-16 16:32N 43°26' W 002°40'2 0.1
2014-Jul-15 04:33N 43°26' W 002°37'9 0.8
2014-Jul-14 17:19N 43°28' W 002°25'  

Dump ship's entire track history